createdAt,value
2018-01-23T00:00:57.151Z,14.17
2018-01-23T00:03:25.492Z,14.80
2018-01-23T00:05:53.117Z,14.90
2018-01-23T00:08:20.708Z,13.23
2018-01-23T00:10:48.335Z,13.27
2018-01-23T00:13:15.940Z,12.67
2018-01-23T00:15:43.532Z,12.23
2018-01-23T00:18:11.903Z,9.67
2018-01-23T00:20:40.250Z,8.93
2018-01-23T00:23:07.859Z,9.07
2018-01-23T00:25:35.461Z,9.33
2018-01-23T00:28:03.053Z,9.97
2018-01-23T00:30:30.623Z,9.90
2018-01-23T00:32:58.988Z,9.40
2018-01-23T00:35:26.652Z,9.50
2018-01-23T00:37:55.744Z,9.10
2018-01-23T00:40:24.852Z,8.83
2018-01-23T00:42:52.539Z,8.73
2018-01-23T00:45:20.130Z,8.63
2018-01-23T00:47:47.713Z,8.20
2018-01-23T00:50:15.308Z,8.33
2018-01-23T00:52:43.665Z,8.43
2018-01-23T00:55:11.253Z,8.67
2018-01-23T00:57:38.862Z,8.20
2018-01-23T01:00:06.442Z,9.20
2018-01-23T01:02:34.049Z,7.47
2018-01-23T01:05:01.653Z,7.80
2018-01-23T01:07:29.229Z,8.60
2018-01-23T01:09:57.896Z,7.80
2018-01-23T01:12:26.245Z,7.43
2018-01-23T01:14:53.856Z,7.37
2018-01-23T01:17:22.193Z,7.87
2018-01-23T01:19:49.786Z,7.70
2018-01-23T01:22:18.177Z,8.23
2018-01-23T01:24:46.548Z,8.83
2018-01-23T01:27:14.986Z,8.07
2018-01-23T01:29:42.579Z,8.37
2018-01-23T01:32:10.157Z,9.33
2018-01-23T01:34:38.513Z,9.70
2018-01-23T01:37:06.124Z,11.93
2018-01-23T01:39:33.739Z,14.10
2018-01-23T01:42:01.329Z,14.07
2018-01-23T01:44:28.905Z,13.80
2018-01-23T01:46:56.509Z,12.57
2018-01-23T01:49:24.098Z,12.63
2018-01-23T01:51:52.460Z,11.80
2018-01-23T01:54:20.032Z,13.30
2018-01-23T01:56:48.405Z,12.37
2018-01-23T01:59:16.756Z,14.23
2018-01-23T02:01:44.336Z,13.73
2018-01-23T02:04:11.936Z,11.70
2018-01-23T02:06:39.516Z,14.17
2018-01-23T02:09:07.104Z,19.37
2018-01-23T02:11:34.684Z,16.97
2018-01-23T02:14:03.200Z,17.70
2018-01-23T02:16:30.840Z,16.53
2018-01-23T02:18:59.217Z,15.00
2018-01-23T02:21:27.568Z,15.43
2018-01-23T02:23:55.173Z,14.90
2018-01-23T02:26:22.864Z,14.47
2018-01-23T02:28:50.476Z,14.87
2018-01-23T02:31:18.079Z,12.87
2018-01-23T02:33:45.660Z,12.47
2018-01-23T02:36:14.024Z,10.90
2018-01-23T02:38:41.601Z,11.83
2018-01-23T02:41:09.424Z,10.07
2018-01-23T02:43:37.005Z,9.73
2018-01-23T02:46:04.600Z,9.80
2018-01-23T02:48:32.175Z,10.47
2018-01-23T02:51:00.561Z,11.60
2018-01-23T02:53:28.147Z,11.20
2018-01-23T02:55:55.911Z,13.13
2018-01-23T02:58:23.493Z,7.17
2018-01-23T03:00:51.070Z,6.30
2018-01-23T03:03:18.760Z,6.03
2018-01-23T03:05:47.100Z,5.90
2018-01-23T03:08:14.720Z,5.43
2018-01-23T03:10:42.317Z,6.17
2018-01-23T03:13:10.060Z,6.20
2018-01-23T03:15:37.637Z,6.23
2018-01-23T03:18:05.444Z,6.00
2018-01-23T03:20:33.785Z,5.43
2018-01-23T03:23:01.594Z,6.13
2018-01-23T03:25:29.961Z,6.40
2018-01-23T03:27:58.328Z,7.03
2018-01-23T03:30:25.909Z,6.03
2018-01-23T03:32:54.383Z,5.67
2018-01-23T03:35:22.747Z,5.70
2018-01-23T03:37:50.333Z,6.70
2018-01-23T03:40:18.693Z,6.40
2018-01-23T03:42:47.044Z,6.70
2018-01-23T03:45:14.637Z,6.50
2018-01-23T03:47:42.988Z,7.10
2018-01-23T03:50:10.644Z,6.47
2018-01-23T03:52:38.245Z,6.93
2018-01-23T03:55:06.621Z,6.37
2018-01-23T03:57:34.996Z,6.33
2018-01-23T04:00:03.331Z,6.07
2018-01-23T04:02:30.924Z,7.37
2018-01-23T04:04:58.588Z,7.00
2018-01-23T04:07:26.949Z,7.07
2018-01-23T04:09:54.530Z,6.93
2018-01-23T04:12:22.890Z,6.93
2018-01-23T04:14:50.473Z,7.67
2018-01-23T04:17:18.833Z,7.80
2018-01-23T04:19:46.495Z,6.97
2018-01-23T04:22:14.088Z,8.03
2018-01-23T04:24:41.781Z,7.90
2018-01-23T04:27:09.400Z,7.50
2018-01-23T04:29:37.746Z,8.00
2018-01-23T04:32:05.400Z,7.77
2018-01-23T04:34:33.036Z,8.73
2018-01-23T04:37:00.616Z,9.17
2018-01-23T04:39:28.493Z,9.53
2018-01-23T04:41:56.899Z,9.70
2018-01-23T04:44:25.268Z,9.67
2018-01-23T04:46:53.942Z,10.43
2018-01-23T04:49:21.580Z,9.47
2018-01-23T04:51:49.168Z,9.63
2018-01-23T04:54:17.533Z,9.40
2018-01-23T04:56:45.148Z,9.10
2018-01-23T04:59:12.729Z,8.43
2018-01-23T05:01:40.333Z,9.17
2018-01-23T05:04:07.918Z,8.20
2018-01-23T05:06:35.545Z,9.17
2018-01-23T05:09:03.121Z,7.53
2018-01-23T05:11:31.493Z,7.87
2018-01-23T05:13:59.069Z,8.00
2018-01-23T05:16:27.434Z,8.50
2018-01-23T05:18:55.792Z,8.43
2018-01-23T05:21:24.204Z,7.70
2018-01-23T05:23:52.543Z,6.80
2018-01-23T05:26:20.149Z,6.90
2018-01-23T05:28:47.753Z,7.23
2018-01-23T05:31:15.350Z,7.07
2018-01-23T05:33:43.688Z,7.70
2018-01-23T05:36:11.319Z,7.40
2018-01-23T05:38:38.936Z,6.70
2018-01-23T05:41:06.509Z,6.50
2018-01-23T05:43:34.886Z,7.60
2018-01-23T05:46:03.374Z,7.03
2018-01-23T05:48:31.776Z,6.70
2018-01-23T05:50:59.357Z,7.23
2018-01-23T05:53:26.961Z,6.30
2018-01-23T05:55:54.545Z,6.27
2018-01-23T05:58:22.909Z,6.10
2018-01-23T06:00:51.268Z,6.77
2018-01-23T06:03:18.857Z,6.67
2018-01-23T06:05:46.706Z,6.37
2018-01-23T06:08:14.290Z,6.00
2018-01-23T06:10:41.884Z,6.13
2018-01-23T06:13:09.464Z,6.53
2018-01-23T06:15:37.073Z,5.97
2018-01-23T06:18:04.657Z,5.80
2018-01-23T06:20:32.263Z,5.73
2018-01-23T06:22:59.848Z,6.00
2018-01-23T06:25:27.429Z,5.60
2018-01-23T06:27:55.033Z,5.67
2018-01-23T06:30:22.633Z,6.70
2018-01-23T06:32:50.216Z,8.07
2018-01-23T06:35:17.821Z,8.50
2018-01-23T06:37:45.392Z,11.10
2018-01-23T06:40:13.750Z,13.07
2018-01-23T06:42:41.328Z,10.30
2018-01-23T06:45:09.716Z,9.07
2018-01-23T06:47:38.073Z,9.53
2018-01-23T06:50:05.657Z,8.33
2018-01-23T06:52:34.016Z,11.40
2018-01-23T06:55:01.602Z,10.03
2018-01-23T06:57:29.204Z,10.50
2018-01-23T06:59:56.797Z,8.93
2018-01-23T07:02:25.161Z,7.70
2018-01-23T07:04:52.768Z,7.03
2018-01-23T07:07:20.346Z,5.13
2018-01-23T07:09:48.121Z,4.77
2018-01-23T07:12:15.749Z,4.80
2018-01-23T07:14:43.348Z,4.63
2018-01-23T07:17:10.964Z,5.00
2018-01-23T07:19:38.548Z,5.03
2018-01-23T07:22:06.130Z,5.27
2018-01-23T07:24:33.928Z,4.90
2018-01-23T07:27:01.513Z,5.60
2018-01-23T07:29:29.157Z,4.60
2018-01-23T07:31:57.705Z,4.83
2018-01-23T07:34:25.261Z,4.70
2018-01-23T07:36:52.908Z,4.33
2018-01-23T07:39:20.497Z,5.00
2018-01-23T07:41:48.084Z,4.30
2018-01-23T07:44:16.466Z,4.60
2018-01-23T07:46:44.973Z,5.10
2018-01-23T07:49:12.568Z,5.67
2018-01-23T07:51:40.206Z,6.10
2018-01-23T07:54:07.788Z,7.00
2018-01-23T07:56:35.380Z,7.10
2018-01-23T07:59:03.750Z,6.53
2018-01-23T08:01:31.333Z,6.67
2018-01-23T08:03:59.693Z,6.77
2018-01-23T08:06:27.294Z,8.17
2018-01-23T08:08:54.876Z,7.30
2018-01-23T08:11:22.492Z,6.67
2018-01-23T08:13:50.090Z,5.97
2018-01-23T08:16:17.668Z,5.63
2018-01-23T08:18:45.277Z,4.10
2018-01-23T08:21:12.874Z,4.13
2018-01-23T08:23:40.512Z,5.03
2018-01-23T08:26:08.093Z,4.80
2018-01-23T08:28:35.705Z,6.07
2018-01-23T08:31:04.045Z,5.70
2018-01-23T08:33:31.645Z,5.10
2018-01-23T08:35:59.989Z,4.50
2018-01-23T08:38:27.581Z,3.80
2018-01-23T08:40:55.929Z,4.33
2018-01-23T08:43:23.554Z,5.00
2018-01-23T08:45:51.129Z,3.83
2018-01-23T08:48:18.734Z,3.70
2018-01-23T08:50:47.080Z,5.13
2018-01-23T08:53:15.433Z,4.33
2018-01-23T08:55:43.044Z,3.57
2018-01-23T08:58:10.613Z,3.70
2018-01-23T09:00:39.005Z,3.47
2018-01-23T09:03:06.578Z,3.93
2018-01-23T09:05:34.236Z,3.37
2018-01-23T09:08:01.825Z,3.77
2018-01-23T09:10:29.437Z,3.73
2018-01-23T09:12:57.785Z,4.20
2018-01-23T09:15:25.366Z,4.47
2018-01-23T09:17:53.726Z,5.23
2018-01-23T09:20:21.304Z,4.97
2018-01-23T09:22:49.677Z,5.60
2018-01-23T09:25:17.258Z,4.87
2018-01-23T09:27:44.886Z,4.67
2018-01-23T09:30:13.346Z,4.17
2018-01-23T09:32:40.937Z,4.10
2018-01-23T09:35:08.559Z,4.53
2018-01-23T09:37:36.137Z,4.80
2018-01-23T09:40:03.690Z,4.50
2018-01-23T09:42:31.352Z,4.30
2018-01-23T09:44:58.933Z,4.57
2018-01-23T09:47:26.572Z,4.37
2018-01-23T09:49:54.173Z,8.50
2018-01-23T09:52:22.541Z,5.73
2018-01-23T09:54:50.136Z,11.13
2018-01-23T09:57:17.749Z,10.97
2018-01-23T09:59:45.337Z,8.63
2018-01-23T10:02:13.696Z,7.27
2018-01-23T10:04:41.365Z,6.13
2018-01-23T10:07:09.729Z,6.60
2018-01-23T10:09:37.350Z,6.43
2018-01-23T10:12:04.960Z,6.27
2018-01-23T10:14:32.535Z,6.27
2018-01-23T10:17:00.892Z,6.33
2018-01-23T10:19:28.495Z,9.10
2018-01-23T10:21:56.090Z,6.80
2018-01-23T10:24:23.699Z,6.40
2018-01-23T10:26:52.038Z,7.00
2018-01-23T10:29:19.627Z,7.03
2018-01-23T10:31:47.975Z,6.83
2018-01-23T10:34:15.569Z,5.63
2018-01-23T10:36:43.909Z,4.90
2018-01-23T10:39:11.513Z,4.40
2018-01-23T10:41:39.857Z,5.23
2018-01-23T10:44:07.454Z,3.90
2018-01-23T10:46:35.025Z,4.20
2018-01-23T10:49:02.914Z,3.93
2018-01-23T10:51:30.532Z,4.03
2018-01-23T10:53:58.877Z,4.60
2018-01-23T10:56:26.452Z,5.20
2018-01-23T10:58:54.061Z,4.50
2018-01-23T11:01:27.259Z,5.10
2018-01-23T11:03:54.920Z,4.07
2018-01-23T11:06:22.496Z,3.60
2018-01-23T11:08:50.104Z,3.80
2018-01-23T11:11:18.449Z,3.27
2018-01-23T11:13:46.032Z,4.60
2018-01-23T11:16:14.417Z,4.10
2018-01-23T11:18:42.948Z,3.30
2018-01-23T11:21:10.564Z,4.50
2018-01-23T11:23:38.158Z,3.80
2018-01-23T11:26:05.763Z,3.30
2018-01-23T11:28:33.353Z,3.40
2018-01-23T11:31:00.944Z,3.07
2018-01-23T11:33:28.552Z,3.20
2018-01-23T11:35:56.919Z,3.20
2018-01-23T11:38:24.485Z,3.60
2018-01-23T11:40:52.166Z,3.40
2018-01-23T11:43:20.537Z,3.03
2018-01-23T11:45:48.888Z,3.43
2018-01-23T11:48:16.489Z,2.67
2018-01-23T11:50:44.161Z,3.60
2018-01-23T11:53:11.828Z,3.23
2018-01-23T11:55:39.400Z,3.57
2018-01-23T11:58:06.999Z,3.20
2018-01-23T12:00:34.624Z,3.67
2018-01-23T12:03:02.227Z,3.80
2018-01-23T12:05:30.662Z,3.67
2018-01-23T12:07:58.252Z,4.03
2018-01-23T12:10:25.826Z,3.70
2018-01-23T12:12:53.568Z,4.33
2018-01-23T12:15:21.157Z,4.03
2018-01-23T12:17:49.524Z,4.17
2018-01-23T12:20:17.227Z,3.77
2018-01-23T12:22:44.829Z,4.00
2018-01-23T12:25:12.433Z,3.80
2018-01-23T12:27:40.793Z,3.63
2018-01-23T12:30:08.418Z,4.23
2018-01-23T12:32:36.013Z,3.47
2018-01-23T12:35:03.589Z,4.00
2018-01-23T12:37:31.961Z,3.10
2018-01-23T12:40:00.309Z,3.83
2018-01-23T12:42:27.926Z,3.90
2018-01-23T12:44:55.512Z,3.90
2018-01-23T12:47:23.109Z,4.40
2018-01-23T12:49:50.717Z,4.10
2018-01-23T12:52:18.372Z,4.67
2018-01-23T12:54:45.999Z,5.10
2018-01-23T12:57:14.353Z,5.43
2018-01-23T12:59:41.932Z,4.83
2018-01-23T13:02:09.536Z,4.47
2018-01-23T13:04:37.126Z,4.97
2018-01-23T13:07:04.723Z,4.87
2018-01-23T13:09:32.335Z,5.07
2018-01-23T13:12:00.130Z,4.00
2018-01-23T13:14:27.722Z,4.50
2018-01-23T13:16:55.330Z,3.77
2018-01-23T13:19:22.920Z,4.50
2018-01-23T13:21:51.296Z,3.73
2018-01-23T13:24:19.641Z,3.63
2018-01-23T13:26:47.310Z,4.07
2018-01-23T13:29:14.905Z,3.40
2018-01-23T13:31:43.277Z,3.70
2018-01-23T13:34:11.617Z,4.27
2018-01-23T13:36:39.245Z,4.37
2018-01-23T13:39:06.853Z,4.40
2018-01-23T13:41:34.461Z,5.10
2018-01-23T13:44:02.048Z,3.87
2018-01-23T13:46:29.683Z,3.70
2018-01-23T13:48:57.398Z,4.40
2018-01-23T13:51:24.981Z,4.97
2018-01-23T13:53:53.663Z,4.43
2018-01-23T13:56:22.029Z,5.30
2018-01-23T13:58:49.605Z,5.90
2018-01-23T14:01:17.980Z,4.30
2018-01-23T14:03:46.338Z,5.37
2018-01-23T14:06:13.942Z,4.00
2018-01-23T14:08:41.525Z,4.33
2018-01-23T14:11:09.126Z,5.70
2018-01-23T14:13:36.713Z,4.20
2018-01-23T14:16:05.088Z,3.70
2018-01-23T14:18:32.714Z,4.80
2018-01-23T14:21:00.356Z,4.87
2018-01-23T14:23:27.952Z,4.90
2018-01-23T14:25:55.540Z,5.73
2018-01-23T14:28:23.129Z,5.70
2018-01-23T14:30:50.749Z,5.00
2018-01-23T14:33:19.117Z,4.37
2018-01-23T14:35:47.474Z,3.60
2018-01-23T14:38:15.077Z,4.33
2018-01-23T14:40:42.681Z,3.93
2018-01-23T14:43:10.244Z,3.43
2018-01-23T14:45:37.846Z,4.07
2018-01-23T14:48:06.192Z,3.70
2018-01-23T14:50:33.791Z,3.80
2018-01-23T14:53:02.199Z,4.03
2018-01-23T14:55:29.770Z,4.00
2018-01-23T14:57:57.380Z,3.93
2018-01-23T15:00:25.729Z,5.20
2018-01-23T15:02:53.378Z,4.53
2018-01-23T15:05:20.948Z,5.00
2018-01-23T15:07:48.732Z,4.97
2018-01-23T15:10:17.093Z,5.93
2018-01-23T15:12:44.689Z,4.80
2018-01-23T15:15:13.057Z,5.97
2018-01-23T15:17:41.393Z,4.60
2018-01-23T15:20:09.025Z,4.47
2018-01-23T15:22:36.629Z,7.03
2018-01-23T15:25:04.241Z,6.97
2018-01-23T15:27:31.842Z,5.00
2018-01-23T15:29:59.441Z,4.40
2018-01-23T15:32:27.800Z,4.73
2018-01-23T15:34:55.481Z,4.73
2018-01-23T15:37:23.903Z,5.90
2018-01-23T15:39:51.520Z,5.07
2018-01-23T15:42:19.856Z,5.27
2018-01-23T15:44:47.458Z,5.20
2018-01-23T15:47:16.001Z,6.30
2018-01-23T15:49:43.605Z,6.23
2018-01-23T15:52:11.960Z,5.97
2018-01-23T15:54:39.557Z,6.27
2018-01-23T15:57:07.148Z,6.97
2018-01-23T15:59:34.741Z,7.00
2018-01-23T16:02:02.346Z,6.70
2018-01-23T16:04:29.979Z,4.90
2018-01-23T16:06:58.324Z,6.47
2018-01-23T16:09:26.669Z,5.27
2018-01-23T16:11:54.314Z,4.80
2018-01-23T16:14:21.900Z,4.77
2018-01-23T16:16:49.525Z,5.13
2018-01-23T16:19:17.861Z,4.73
2018-01-23T16:21:45.528Z,4.77
2018-01-23T16:24:13.129Z,4.97
2018-01-23T16:26:40.741Z,5.40
2018-01-23T16:29:09.131Z,5.53
2018-01-23T16:31:36.740Z,5.80
2018-01-23T16:34:04.320Z,5.40
2018-01-23T16:36:31.969Z,6.27
2018-01-23T16:38:59.562Z,5.10
2018-01-23T16:41:27.201Z,5.90
2018-01-23T16:43:54.788Z,5.50
2018-01-23T16:46:22.399Z,6.80
2018-01-23T16:48:50.000Z,7.40
2018-01-23T16:51:19.208Z,7.33
2018-01-23T16:53:46.798Z,8.23
2018-01-23T16:56:15.193Z,7.73
2018-01-23T16:58:43.557Z,7.97
2018-01-23T17:01:11.972Z,8.83
2018-01-23T17:03:39.566Z,7.57
2018-01-23T17:06:07.432Z,8.53
2018-01-23T17:08:35.133Z,11.80
2018-01-23T17:11:03.541Z,9.00
2018-01-23T17:13:31.909Z,9.03
2018-01-23T17:15:59.513Z,7.67
2018-01-23T17:18:27.111Z,5.93
2018-01-23T17:20:55.494Z,6.20
2018-01-23T17:23:23.083Z,5.30
2018-01-23T17:25:50.705Z,6.03
2018-01-23T17:28:19.213Z,5.70
2018-01-23T17:30:47.099Z,6.20
2018-01-23T17:33:15.818Z,7.47
2018-01-23T17:35:43.656Z,8.80
2018-01-23T17:38:11.547Z,6.53
2018-01-23T17:40:39.438Z,6.33
2018-01-23T17:43:07.359Z,6.57
2018-01-23T17:45:35.993Z,5.80
2018-01-23T17:48:03.859Z,5.40
2018-01-23T17:50:31.739Z,5.53
2018-01-23T17:52:59.572Z,5.20
2018-01-23T17:55:27.400Z,4.20
2018-01-23T17:57:55.253Z,4.13
2018-01-23T18:00:23.076Z,4.97
2018-01-23T18:02:50.979Z,6.27
2018-01-23T18:05:18.766Z,5.20
2018-01-23T18:07:46.549Z,5.27
2018-01-23T18:10:15.174Z,5.23
2018-01-23T18:12:42.918Z,5.33
2018-01-23T18:15:11.443Z,5.03
2018-01-23T18:17:39.155Z,4.40
2018-01-23T18:20:06.826Z,4.83
2018-01-23T18:22:35.215Z,4.90
2018-01-23T18:25:03.577Z,4.57
2018-01-23T18:27:31.297Z,5.23
2018-01-23T18:29:59.650Z,4.80
2018-01-23T18:32:27.285Z,5.20
2018-01-23T18:34:55.677Z,6.77
2018-01-23T18:37:24.096Z,5.10
2018-01-23T18:39:51.693Z,6.13
2018-01-23T18:42:19.289Z,7.20
2018-01-23T18:44:46.920Z,7.47
2018-01-23T18:47:15.432Z,6.93
2018-01-23T18:49:43.138Z,6.67
2018-01-23T18:52:10.982Z,6.23
2018-01-23T18:54:38.797Z,9.33
2018-01-23T18:57:06.522Z,9.33
2018-01-23T18:59:34.273Z,8.27
2018-01-23T19:02:01.974Z,6.20
2018-01-23T19:04:29.774Z,5.10
2018-01-23T19:06:57.609Z,5.27
2018-01-23T19:09:26.175Z,5.50
2018-01-23T19:11:53.944Z,5.70
2018-01-23T19:14:21.743Z,6.00
2018-01-23T19:16:49.633Z,6.80
2018-01-23T19:19:17.408Z,5.90
2018-01-23T19:21:45.168Z,5.67
2018-01-23T19:24:12.875Z,6.33
2018-01-23T19:26:41.276Z,6.23
2018-01-23T19:29:09.634Z,6.20
2018-01-23T19:31:37.246Z,6.33
2018-01-23T19:34:04.842Z,6.70
2018-01-23T19:36:32.425Z,7.20
2018-01-23T19:39:00.049Z,7.20
2018-01-23T19:41:28.412Z,7.70
2018-01-23T19:43:56.017Z,7.40
2018-01-23T19:46:23.625Z,8.53
2018-01-23T19:48:51.253Z,8.53
2018-01-23T19:51:19.601Z,8.43
2018-01-23T19:53:47.286Z,7.77
2018-01-23T19:56:14.887Z,7.57
2018-01-23T19:58:42.499Z,6.93
2018-01-23T20:01:10.094Z,6.53
2018-01-23T20:03:38.449Z,6.07
2018-01-23T20:06:06.069Z,6.93
2018-01-23T20:08:33.644Z,6.70
2018-01-23T20:11:01.218Z,7.00
2018-01-23T20:13:28.805Z,7.67
2018-01-23T20:15:57.201Z,7.37
2018-01-23T20:18:24.800Z,6.17
2018-01-23T20:20:52.431Z,7.53
2018-01-23T20:23:20.022Z,6.97
2018-01-23T20:25:47.623Z,7.27
2018-01-23T20:28:15.986Z,7.23
2018-01-23T20:30:43.592Z,8.73
2018-01-23T20:33:11.186Z,8.60
2018-01-23T20:35:38.777Z,8.43
2018-01-23T20:38:06.370Z,8.87
2018-01-23T20:40:33.952Z,8.60
2018-01-23T20:43:01.555Z,8.73
2018-01-23T20:45:29.909Z,8.10
2018-01-23T20:47:57.501Z,8.70
2018-01-23T20:50:25.841Z,9.40
2018-01-23T20:52:53.532Z,10.80
2018-01-23T20:55:21.904Z,11.37
2018-01-23T20:57:49.493Z,11.67
2018-01-23T21:00:17.109Z,10.10
2018-01-23T21:02:44.753Z,10.43
2018-01-23T21:05:12.345Z,10.23
2018-01-23T21:07:39.936Z,8.30
2018-01-23T21:10:07.537Z,8.03
2018-01-23T21:12:35.133Z,7.80
2018-01-23T21:15:03.504Z,12.10
2018-01-23T21:17:31.092Z,11.77
2018-01-23T21:19:58.684Z,11.53
2018-01-23T21:22:26.293Z,11.10
2018-01-23T21:24:54.667Z,11.77
2018-01-23T21:27:22.275Z,10.93
2018-01-23T21:29:49.873Z,12.07
2018-01-23T21:32:17.560Z,12.50
2018-01-23T21:34:45.901Z,11.57
2018-01-23T21:37:14.268Z,11.67
2018-01-23T21:39:41.892Z,12.67
2018-01-23T21:42:09.506Z,11.03
2018-01-23T21:44:37.085Z,13.33
2018-01-23T21:47:05.464Z,12.50
2018-01-23T21:49:33.073Z,12.60
2018-01-23T21:52:01.426Z,12.07
2018-01-23T21:54:29.029Z,12.70
2018-01-23T21:56:56.653Z,13.07
2018-01-23T21:59:24.280Z,11.97
2018-01-23T22:01:51.885Z,12.20
2018-01-23T22:04:19.561Z,10.50
2018-01-23T22:06:47.514Z,11.30
2018-01-23T22:09:15.113Z,10.73
2018-01-23T22:11:42.710Z,26.70
2018-01-23T22:14:11.076Z,18.53
2018-01-23T22:16:39.426Z,13.57
2018-01-23T22:19:07.042Z,14.10
2018-01-23T22:21:34.638Z,12.20
2018-01-23T22:24:02.244Z,11.67
2018-01-23T22:26:30.673Z,11.97
2018-01-23T22:28:59.042Z,14.43
2018-01-23T22:31:26.650Z,17.17
2018-01-23T22:33:55.014Z,13.93
2018-01-23T22:36:22.588Z,13.10
2018-01-23T22:38:50.978Z,11.63
2018-01-23T22:41:19.354Z,9.47
2018-01-23T22:43:47.821Z,11.03
2018-01-23T22:46:15.421Z,10.47
2018-01-23T22:48:43.038Z,10.00
2018-01-23T22:51:10.643Z,11.30
2018-01-23T22:53:38.228Z,11.10
2018-01-23T22:56:05.861Z,9.10
2018-01-23T22:58:33.433Z,8.67
2018-01-23T23:01:01.045Z,7.73
2018-01-23T23:03:28.650Z,13.07
2018-01-23T23:05:56.245Z,13.43
2018-01-23T23:08:23.851Z,13.37
2018-01-23T23:10:52.221Z,15.63
2018-01-23T23:13:20.565Z,24.27
2018-01-23T23:15:48.189Z,29.93
2018-01-23T23:18:15.768Z,24.00
2018-01-23T23:20:44.148Z,17.17
2018-01-23T23:23:11.777Z,14.07
2018-01-23T23:25:39.380Z,12.57
2018-01-23T23:28:06.992Z,11.73
2018-01-23T23:30:34.582Z,11.67
2018-01-23T23:33:02.166Z,10.67
2018-01-23T23:35:29.801Z,11.47
2018-01-23T23:37:57.388Z,9.90
2018-01-23T23:40:24.997Z,11.37
2018-01-23T23:42:52.576Z,9.77
2018-01-23T23:45:20.245Z,8.50
2018-01-23T23:47:47.821Z,8.87
2018-01-23T23:50:15.417Z,7.73
2018-01-23T23:52:43.780Z,11.53
2018-01-23T23:55:11.354Z,14.80
2018-01-23T23:57:39.718Z,17.43
